createdAt,value
2023-04-12T00:03:10.431Z,7
2023-04-12T00:32:16.528Z,7
2023-04-12T01:01:38.935Z,7
2023-04-12T01:30:52.591Z,8
2023-04-12T02:00:09.933Z,9
2023-04-12T02:29:31.313Z,7
2023-04-12T02:58:54.771Z,7
2023-04-12T03:28:14.141Z,9
2023-04-12T03:57:35.493Z,7
2023-04-12T04:26:52.610Z,7
2023-04-12T04:56:07.133Z,6
2023-04-12T05:25:22.856Z,6
2023-04-12T05:54:37.919Z,7
2023-04-12T06:23:55.927Z,6
2023-04-12T06:53:00.566Z,9
2023-04-12T07:21:58.833Z,8
2023-04-12T07:51:09.327Z,10
2023-04-12T08:20:19.369Z,7
2023-04-12T08:49:23.024Z,7
2023-04-12T09:18:35.144Z,9
2023-04-12T09:47:47.978Z,8
2023-04-12T10:16:47.980Z,7
2023-04-12T10:45:56.989Z,7
2023-04-12T11:15:19.099Z,7
2023-04-12T11:44:48.139Z,6
2023-04-12T12:13:16.983Z,5
2023-04-12T12:42:31.054Z,6
2023-04-12T13:11:39.692Z,4
2023-04-12T13:40:45.970Z,4
2023-04-12T14:09:50.457Z,3
2023-04-12T14:38:54.764Z,3
2023-04-12T15:07:56.109Z,5
2023-04-12T15:36:49.822Z,4
2023-04-12T16:05:57.302Z,3
2023-04-12T16:35:07.906Z,3
2023-04-12T17:04:17.088Z,3
2023-04-12T17:33:24.530Z,3
2023-04-12T18:02:39.670Z,1
2023-04-12T18:31:41.084Z,3
2023-04-12T19:00:55.154Z,4
2023-04-12T19:30:06.455Z,3
2023-04-12T19:59:26.435Z,3
2023-04-12T20:28:34.629Z,3
2023-04-12T20:57:52.066Z,3
2023-04-12T21:27:03.804Z,3
2023-04-12T21:56:22.705Z,3
2023-04-12T22:25:44.363Z,4
2023-04-12T22:55:03.655Z,4
2023-04-12T23:23:59.374Z,3
2023-04-12T23:53:00.542Z,3
